sensor_id;sensor_type;location;lat;lon;timestamp;P1;durP1;ratioP1;P2;durP2;ratioP2
13075;SDS011;6604;52.484;13.330;2023-03-13T07:47:52;10.37;;;3.90;;
13075;SDS011;6604;52.484;13.330;2023-03-13T07:50:19;17.87;;;4.87;;
13075;SDS011;6604;52.484;13.330;2023-03-13T07:52:45;15.40;;;4.17;;
13075;SDS011;6604;52.484;13.330;2023-03-13T07:55:12;9.27;;;3.73;;
13075;SDS011;6604;52.484;13.330;2023-03-13T07:57:39;12.47;;;4.00;;
13075;SDS011;6604;52.484;13.330;2023-03-13T08:00:09;15.43;;;3.57;;
13075;SDS011;6604;52.484;13.330;2023-03-13T08:02:40;17.33;;;3.93;;
13075;SDS011;6604;52.484;13.330;2023-03-13T08:05:10;7.80;;;3.47;;
13075;SDS011;6604;52.484;13.330;2023-03-13T08:07:36;12.73;;;4.13;;
13075;SDS011;6604;52.484;13.330;2023-03-13T08:10:04;13.77;;;3.40;;
13075;SDS011;6604;52.484;13.330;2023-03-13T08:12:33;12.27;;;3.40;;
13075;SDS011;6604;52.484;13.330;2023-03-13T08:14:59;10.30;;;3.40;;
13075;SDS011;6604;52.484;13.330;2023-03-13T08:17:28;10.73;;;3.07;;
13075;SDS011;6604;52.484;13.330;2023-03-13T08:19:54;15.83;;;3.57;;
13075;SDS011;6604;52.484;13.330;2023-03-13T08:22:22;15.70;;;3.57;;
13075;SDS011;6604;52.484;13.330;2023-03-13T08:24:49;10.90;;;3.50;;
13075;SDS011;6604;52.484;13.330;2023-03-13T08:27:16;17.73;;;4.07;;
13075;SDS011;6604;52.484;13.330;2023-03-13T08:29:42;14.77;;;3.60;;
13075;SDS011;6604;52.484;13.330;2023-03-13T08:32:09;12.87;;;3.30;;
13075;SDS011;6604;52.484;13.330;2023-03-13T08:34:37;10.37;;;3.33;;
13075;SDS011;6604;52.484;13.330;2023-03-13T08:37:04;11.27;;;3.43;;
13075;SDS011;6604;52.484;13.330;2023-03-13T08:39:36;13.13;;;3.60;;
13075;SDS011;6604;52.484;13.330;2023-03-13T08:42:03;11.43;;;4.30;;
13075;SDS011;6604;52.484;13.330;2023-03-13T08:44:30;11.33;;;3.67;;
13075;SDS011;6604;52.484;13.330;2023-03-13T08:46:57;11.10;;;4.00;;
13075;SDS011;6604;52.484;13.330;2023-03-13T08:49:24;11.60;;;4.17;;
13075;SDS011;6604;52.484;13.330;2023-03-13T08:51:50;7.80;;;3.27;;
13075;SDS011;6604;52.484;13.330;2023-03-13T08:54:17;13.23;;;3.67;;
13075;SDS011;6604;52.484;13.330;2023-03-13T08:56:47;11.07;;;3.70;;
13075;SDS011;6604;52.484;13.330;2023-03-13T08:59:14;11.70;;;3.60;;
13075;SDS011;6604;52.484;13.330;2023-03-13T09:01:43;9.37;;;3.10;;
13075;SDS011;6604;52.484;13.330;2023-03-13T09:04:10;10.90;;;2.77;;
13075;SDS011;6604;52.484;13.330;2023-03-13T09:06:37;7.93;;;2.93;;
13075;SDS011;6604;52.484;13.330;2023-03-13T09:09:03;11.57;;;2.90;;
13075;SDS011;6604;52.484;13.330;2023-03-13T09:11:31;10.63;;;3.40;;
13075;SDS011;6604;52.484;13.330;2023-03-13T09:13:59;6.80;;;2.60;;
13075;SDS011;6604;52.484;13.330;2023-03-13T09:16:28;13.20;;;3.47;;
13075;SDS011;6604;52.484;13.330;2023-03-13T09:18:56;10.50;;;3.20;;
13075;SDS011;6604;52.484;13.330;2023-03-13T09:21:23;8.70;;;2.93;;
13075;SDS011;6604;52.484;13.330;2023-03-13T09:23:50;10.33;;;3.40;;
13075;SDS011;6604;52.484;13.330;2023-03-13T09:26:17;12.43;;;3.43;;
13075;SDS011;6604;52.484;13.330;2023-03-13T09:28:44;8.60;;;2.60;;
13075;SDS011;6604;52.484;13.330;2023-03-13T09:31:13;8.43;;;3.00;;
13075;SDS011;6604;52.484;13.330;2023-03-13T09:33:40;7.90;;;3.17;;
13075;SDS011;6604;52.484;13.330;2023-03-13T09:36:09;11.40;;;4.53;;
13075;SDS011;6604;52.484;13.330;2023-03-13T09:38:36;13.57;;;3.30;;
13075;SDS011;6604;52.484;13.330;2023-03-13T09:41:04;11.43;;;2.90;;
13075;SDS011;6604;52.484;13.330;2023-03-13T09:43:39;8.53;;;2.70;;
13075;SDS011;6604;52.484;13.330;2023-03-13T09:46:11;8.40;;;2.70;;
13075;SDS011;6604;52.484;13.330;2023-03-13T09:48:42;8.57;;;2.77;;
13075;SDS011;6604;52.484;13.330;2023-03-13T09:51:11;6.73;;;3.07;;
13075;SDS011;6604;52.484;13.330;2023-03-13T09:53:40;8.67;;;2.90;;
13075;SDS011;6604;52.484;13.330;2023-03-13T09:56:10;7.77;;;2.90;;
13075;SDS011;6604;52.484;13.330;2023-03-13T09:58:43;9.53;;;3.27;;
13075;SDS011;6604;52.484;13.330;2023-03-13T10:01:11;6.60;;;3.10;;
13075;SDS011;6604;52.484;13.330;2023-03-13T10:03:45;8.23;;;3.03;;
13075;SDS011;6604;52.484;13.330;2023-03-13T10:06:17;9.40;;;2.70;;
13075;SDS011;6604;52.484;13.330;2023-03-13T10:08:44;7.20;;;2.53;;
13075;SDS011;6604;52.484;13.330;2023-03-13T10:11:15;9.20;;;2.83;;
13075;SDS011;6604;52.484;13.330;2023-03-13T10:13:45;7.67;;;2.73;;
13075;SDS011;6604;52.484;13.330;2023-03-13T10:16:13;4.10;;;2.30;;
13075;SDS011;6604;52.484;13.330;2023-03-13T10:18:45;11.10;;;2.50;;
13075;SDS011;6604;52.484;13.330;2023-03-13T10:21:15;6.63;;;2.73;;
13075;SDS011;6604;52.484;13.330;2023-03-13T10:23:43;4.33;;;2.30;;
13075;SDS011;6604;52.484;13.330;2023-03-13T10:26:13;6.20;;;2.43;;
13075;SDS011;6604;52.484;13.330;2023-03-13T10:28:41;7.60;;;2.53;;
13075;SDS011;6604;52.484;13.330;2023-03-13T10:31:10;6.53;;;2.90;;
13075;SDS011;6604;52.484;13.330;2023-03-13T10:33:39;5.87;;;2.83;;
13075;SDS011;6604;52.484;13.330;2023-03-13T10:36:11;5.67;;;2.20;;
13075;SDS011;6604;52.484;13.330;2023-03-13T10:38:48;5.57;;;2.10;;
13075;SDS011;6604;52.484;13.330;2023-03-13T10:44:01;7.77;;;2.23;;
13075;SDS011;6604;52.484;13.330;2023-03-13T10:46:30;9.77;;;2.50;;
13075;SDS011;6604;52.484;13.330;2023-03-13T10:48:59;7.47;;;2.13;;
13075;SDS011;6604;52.484;13.330;2023-03-13T10:51:32;6.67;;;2.53;;
13075;SDS011;6604;52.484;13.330;2023-03-13T10:54:07;6.53;;;2.57;;
13075;SDS011;6604;52.484;13.330;2023-03-13T10:56:38;4.90;;;2.23;;
13075;SDS011;6604;52.484;13.330;2023-03-13T10:59:17;4.63;;;1.93;;
13075;SDS011;6604;52.484;13.330;2023-03-13T11:01:45;6.30;;;2.20;;
13075;SDS011;6604;52.484;13.330;2023-03-13T11:04:20;11.40;;;2.10;;
13075;SDS011;6604;52.484;13.330;2023-03-13T11:06:50;5.17;;;1.93;;
13075;SDS011;6604;52.484;13.330;2023-03-13T11:09:18;4.33;;;2.10;;
13075;SDS011;6604;52.484;13.330;2023-03-13T11:11:45;4.97;;;1.97;;
13075;SDS011;6604;52.484;13.330;2023-03-13T11:14:13;3.37;;;1.83;;
13075;SDS011;6604;52.484;13.330;2023-03-13T11:16:42;5.80;;;2.57;;
13075;SDS011;6604;52.484;13.330;2023-03-13T11:19:16;4.97;;;2.27;;
13075;SDS011;6604;52.484;13.330;2023-03-13T11:21:47;9.20;;;2.60;;
13075;SDS011;6604;52.484;13.330;2023-03-13T11:24:23;8.70;;;2.70;;
13075;SDS011;6604;52.484;13.330;2023-03-13T11:26:54;5.73;;;2.07;;
13075;SDS011;6604;52.484;13.330;2023-03-13T11:29:23;2.77;;;1.80;;
13075;SDS011;6604;52.484;13.330;2023-03-13T11:31:53;4.60;;;2.80;;
13075;SDS011;6604;52.484;13.330;2023-03-13T11:34:22;5.43;;;1.40;;
13075;SDS011;6604;52.484;13.330;2023-03-13T11:36:52;3.47;;;1.90;;
13075;SDS011;6604;52.484;13.330;2023-03-13T11:39:32;3.20;;;1.70;;
13075;SDS011;6604;52.484;13.330;2023-03-13T11:42:05;2.37;;;1.60;;
13075;SDS011;6604;52.484;13.330;2023-03-13T11:44:37;4.20;;;1.80;;
13075;SDS011;6604;52.484;13.330;2023-03-13T11:47:17;4.10;;;1.67;;
13075;SDS011;6604;52.484;13.330;2023-03-13T11:49:57;3.70;;;1.87;;
13075;SDS011;6604;52.484;13.330;2023-03-13T11:52:30;2.87;;;1.77;;
13075;SDS011;6604;52.484;13.330;2023-03-13T11:55:06;3.07;;;1.83;;
13075;SDS011;6604;52.484;13.330;2023-03-13T11:57:36;1.83;;;1.60;;
13075;SDS011;6604;52.484;13.330;2023-03-13T12:00:12;3.03;;;2.17;;
13075;SDS011;6604;52.484;13.330;2023-03-13T12:02:41;2.10;;;1.73;;
13075;SDS011;6604;52.484;13.330;2023-03-13T12:05:10;2.17;;;1.70;;
13075;SDS011;6604;52.484;13.330;2023-03-13T12:07:41;3.10;;;1.60;;
13075;SDS011;6604;52.484;13.330;2023-03-13T12:10:22;2.27;;;1.20;;
13075;SDS011;6604;52.484;13.330;2023-03-13T12:13:01;1.97;;;1.60;;
13075;SDS011;6604;52.484;13.330;2023-03-13T12:15:34;3.37;;;1.30;;
13075;SDS011;6604;52.484;13.330;2023-03-13T12:18:04;1.60;;;1.20;;
13075;SDS011;6604;52.484;13.330;2023-03-13T12:20:33;1.90;;;1.47;;
13075;SDS011;6604;52.484;13.330;2023-03-13T12:23:08;1.77;;;1.13;;
13075;SDS011;6604;52.484;13.330;2023-03-13T12:25:43;2.90;;;1.30;;
13075;SDS011;6604;52.484;13.330;2023-03-13T12:28:15;2.13;;;0.90;;
13075;SDS011;6604;52.484;13.330;2023-03-13T12:30:47;3.10;;;1.20;;
13075;SDS011;6604;52.484;13.330;2023-03-13T12:33:16;3.10;;;1.27;;
13075;SDS011;6604;52.484;13.330;2023-03-13T12:35:47;2.20;;;0.90;;
13075;SDS011;6604;52.484;13.330;2023-03-13T12:38:16;4.67;;;1.50;;
13075;SDS011;6604;52.484;13.330;2023-03-13T12:40:47;1.40;;;1.30;;
13075;SDS011;6604;52.484;13.330;2023-03-13T12:43:16;3.70;;;1.37;;
13075;SDS011;6604;52.484;13.330;2023-03-13T12:45:46;2.00;;;1.27;;
13075;SDS011;6604;52.484;13.330;2023-03-13T12:48:20;2.50;;;1.80;;
13075;SDS011;6604;52.484;13.330;2023-03-13T12:50:55;1.17;;;1.07;;
13075;SDS011;6604;52.484;13.330;2023-03-13T12:53:36;1.03;;;1.00;;
13075;SDS011;6604;52.484;13.330;2023-03-13T12:56:11;1.40;;;1.30;;
13075;SDS011;6604;52.484;13.330;2023-03-13T12:58:43;2.60;;;1.57;;
13075;SDS011;6604;52.484;13.330;2023-03-13T13:01:13;2.03;;;1.37;;
13075;SDS011;6604;52.484;13.330;2023-03-13T13:03:43;4.13;;;1.20;;
13075;SDS011;6604;52.484;13.330;2023-03-13T13:06:14;1.47;;;1.07;;
13075;SDS011;6604;52.484;13.330;2023-03-13T13:08:41;4.67;;;1.33;;
13075;SDS011;6604;52.484;13.330;2023-03-13T13:13:58;1.77;;;1.07;;
13075;SDS011;6604;52.484;13.330;2023-03-13T13:16:25;1.37;;;1.23;;
13075;SDS011;6604;52.484;13.330;2023-03-13T13:18:52;1.53;;;1.17;;
13075;SDS011;6604;52.484;13.330;2023-03-13T13:21:20;2.90;;;1.60;;
13075;SDS011;6604;52.484;13.330;2023-03-13T13:23:47;3.00;;;1.03;;
13075;SDS011;6604;52.484;13.330;2023-03-13T13:31:57;3.00;;;1.40;;
13075;SDS011;6604;52.484;13.330;2023-03-13T13:37:23;2.37;;;1.60;;
13075;SDS011;6604;52.484;13.330;2023-03-13T13:39:51;2.70;;;1.50;;
13075;SDS011;6604;52.484;13.330;2023-03-13T13:45:23;1.80;;;1.30;;
13075;SDS011;6604;52.484;13.330;2023-03-13T13:48:12;4.73;;;1.23;;
13075;SDS011;6604;52.484;13.330;2023-03-13T13:50:38;2.07;;;1.87;;
13075;SDS011;6604;52.484;13.330;2023-03-13T13:53:24;3.60;;;1.50;;
13075;SDS011;6604;52.484;13.330;2023-03-13T13:55:54;4.37;;;1.30;;
13075;SDS011;6604;52.484;13.330;2023-03-13T13:58:23;7.27;;;1.70;;
13075;SDS011;6604;52.484;13.330;2023-03-13T14:00:51;4.07;;;1.40;;
13075;SDS011;6604;52.484;13.330;2023-03-13T14:03:22;1.27;;;1.17;;
13075;SDS011;6604;52.484;13.330;2023-03-13T14:05:50;2.03;;;1.40;;
13075;SDS011;6604;52.484;13.330;2023-03-13T14:08:19;3.37;;;1.30;;
13075;SDS011;6604;52.484;13.330;2023-03-13T14:10:47;4.20;;;2.90;;
13075;SDS011;6604;52.484;13.330;2023-03-13T14:13:17;2.73;;;1.90;;
13075;SDS011;6604;52.484;13.330;2023-03-13T14:15:45;4.33;;;1.50;;
13075;SDS011;6604;52.484;13.330;2023-03-13T14:18:14;3.50;;;1.50;;
13075;SDS011;6604;52.484;13.330;2023-03-13T14:20:52;2.53;;;1.37;;
13075;SDS011;6604;52.484;13.330;2023-03-13T14:23:29;1.63;;;1.43;;
13075;SDS011;6604;52.484;13.330;2023-03-13T14:25:56;1.40;;;1.30;;
13075;SDS011;6604;52.484;13.330;2023-03-13T14:28:23;2.23;;;1.40;;
13075;SDS011;6604;52.484;13.330;2023-03-13T14:30:51;1.50;;;1.37;;
13075;SDS011;6604;52.484;13.330;2023-03-13T14:33:21;5.10;;;1.30;;
13075;SDS011;6604;52.484;13.330;2023-03-13T14:35:48;2.07;;;1.47;;
13075;SDS011;6604;52.484;13.330;2023-03-13T14:38:17;2.83;;;1.97;;
13075;SDS011;6604;52.484;13.330;2023-03-13T14:40:44;4.17;;;2.20;;
13075;SDS011;6604;52.484;13.330;2023-03-13T14:43:17;2.73;;;2.00;;
13075;SDS011;6604;52.484;13.330;2023-03-13T14:45:44;2.80;;;1.80;;
13075;SDS011;6604;52.484;13.330;2023-03-13T14:48:13;4.00;;;1.87;;
13075;SDS011;6604;52.484;13.330;2023-03-13T14:50:42;1.57;;;1.40;;
13075;SDS011;6604;52.484;13.330;2023-03-13T14:53:10;1.70;;;1.40;;
13075;SDS011;6604;52.484;13.330;2023-03-13T14:55:39;3.17;;;1.60;;
13075;SDS011;6604;52.484;13.330;2023-03-13T14:58:22;2.00;;;1.80;;
13075;SDS011;6604;52.484;13.330;2023-03-13T15:00:51;1.87;;;1.33;;
13075;SDS011;6604;52.484;13.330;2023-03-13T15:03:18;1.30;;;1.20;;
13075;SDS011;6604;52.484;13.330;2023-03-13T15:05:46;1.53;;;1.40;;
13075;SDS011;6604;52.484;13.330;2023-03-13T15:08:14;2.43;;;1.90;;
13075;SDS011;6604;52.484;13.330;2023-03-13T15:10:42;3.00;;;1.70;;
13075;SDS011;6604;52.484;13.330;2023-03-13T15:13:16;5.87;;;1.63;;
13075;SDS011;6604;52.484;13.330;2023-03-13T15:15:48;2.20;;;1.57;;
13075;SDS011;6604;52.484;13.330;2023-03-13T15:18:16;2.03;;;1.60;;
13075;SDS011;6604;52.484;13.330;2023-03-13T15:20:43;2.40;;;1.70;;
13075;SDS011;6604;52.484;13.330;2023-03-13T15:23:10;2.87;;;1.50;;
13075;SDS011;6604;52.484;13.330;2023-03-13T15:25:39;1.53;;;1.43;;
13075;SDS011;6604;52.484;13.330;2023-03-13T15:28:09;2.57;;;1.73;;
13075;SDS011;6604;52.484;13.330;2023-03-13T15:30:39;1.57;;;1.37;;
13075;SDS011;6604;52.484;13.330;2023-03-13T15:33:07;1.47;;;1.37;;
13075;SDS011;6604;52.484;13.330;2023-03-13T15:35:34;1.40;;;1.30;;
13075;SDS011;6604;52.484;13.330;2023-03-13T15:38:01;3.40;;;1.90;;
13075;SDS011;6604;52.484;13.330;2023-03-13T15:40:28;1.93;;;1.70;;
13075;SDS011;6604;52.484;13.330;2023-03-13T15:42:55;5.43;;;1.40;;
13075;SDS011;6604;52.484;13.330;2023-03-13T15:45:26;2.53;;;1.80;;
13075;SDS011;6604;52.484;13.330;2023-03-13T15:47:53;2.30;;;1.70;;
13075;SDS011;6604;52.484;13.330;2023-03-13T15:50:20;3.33;;;1.50;;
13075;SDS011;6604;52.484;13.330;2023-03-13T15:52:49;2.27;;;1.70;;
13075;SDS011;6604;52.484;13.330;2023-03-13T15:55:16;2.50;;;1.50;;
13075;SDS011;6604;52.484;13.330;2023-03-13T15:57:44;1.53;;;1.37;;
13075;SDS011;6604;52.484;13.330;2023-03-13T16:00:13;3.17;;;1.30;;
13075;SDS011;6604;52.484;13.330;2023-03-13T16:02:42;3.03;;;1.30;;
13075;SDS011;6604;52.484;13.330;2023-03-13T16:05:08;3.03;;;1.90;;
13075;SDS011;6604;52.484;13.330;2023-03-13T16:07:35;2.07;;;1.63;;
13075;SDS011;6604;52.484;13.330;2023-03-13T16:10:02;2.57;;;2.00;;
13075;SDS011;6604;52.484;13.330;2023-03-13T16:12:29;4.53;;;1.80;;
13075;SDS011;6604;52.484;13.330;2023-03-13T16:14:55;2.70;;;1.90;;
13075;SDS011;6604;52.484;13.330;2023-03-13T16:17:22;2.00;;;1.77;;
13075;SDS011;6604;52.484;13.330;2023-03-13T16:19:53;2.30;;;1.80;;
13075;SDS011;6604;52.484;13.330;2023-03-13T16:22:21;2.07;;;1.70;;
13075;SDS011;6604;52.484;13.330;2023-03-13T16:24:48;3.87;;;2.00;;
13075;SDS011;6604;52.484;13.330;2023-03-13T16:27:14;2.67;;;1.83;;
13075;SDS011;6604;52.484;13.330;2023-03-13T16:29:41;2.73;;;1.80;;
13075;SDS011;6604;52.484;13.330;2023-03-13T16:32:09;3.37;;;2.23;;
13075;SDS011;6604;52.484;13.330;2023-03-13T16:34:36;3.40;;;1.97;;
13075;SDS011;6604;52.484;13.330;2023-03-13T16:37:08;1.97;;;1.70;;
13075;SDS011;6604;52.484;13.330;2023-03-13T16:39:35;3.60;;;1.80;;
13075;SDS011;6604;52.484;13.330;2023-03-13T16:42:01;2.27;;;1.53;;
13075;SDS011;6604;52.484;13.330;2023-03-13T16:44:28;7.40;;;5.67;;
13075;SDS011;6604;52.484;13.330;2023-03-13T16:46:54;4.57;;;1.97;;
13075;SDS011;6604;52.484;13.330;2023-03-13T16:49:21;3.30;;;2.00;;
13075;SDS011;6604;52.484;13.330;2023-03-13T16:51:48;3.50;;;1.93;;
13075;SDS011;6604;52.484;13.330;2023-03-13T16:54:15;4.40;;;2.10;;
13075;SDS011;6604;52.484;13.330;2023-03-13T16:56:42;1.87;;;1.60;;
13075;SDS011;6604;52.484;13.330;2023-03-13T16:59:10;2.70;;;1.67;;
13075;SDS011;6604;52.484;13.330;2023-03-13T17:01:37;2.17;;;1.70;;
13075;SDS011;6604;52.484;13.330;2023-03-13T17:04:03;2.93;;;1.83;;
13075;SDS011;6604;52.484;13.330;2023-03-13T17:06:30;3.13;;;1.80;;
13075;SDS011;6604;52.484;13.330;2023-03-13T17:08:58;2.23;;;1.63;;
13075;SDS011;6604;52.484;13.330;2023-03-13T17:11:31;3.63;;;2.00;;
13075;SDS011;6604;52.484;13.330;2023-03-13T17:14:01;2.47;;;2.23;;
13075;SDS011;6604;52.484;13.330;2023-03-13T17:16:28;2.40;;;1.50;;
13075;SDS011;6604;52.484;13.330;2023-03-13T17:18:56;4.87;;;2.70;;
13075;SDS011;6604;52.484;13.330;2023-03-13T17:21:24;5.03;;;2.40;;
13075;SDS011;6604;52.484;13.330;2023-03-13T17:23:50;6.67;;;2.70;;
13075;SDS011;6604;52.484;13.330;2023-03-13T17:26:20;4.77;;;3.50;;
13075;SDS011;6604;52.484;13.330;2023-03-13T17:28:49;3.17;;;2.23;;
13075;SDS011;6604;52.484;13.330;2023-03-13T17:31:16;3.77;;;2.20;;
13075;SDS011;6604;52.484;13.330;2023-03-13T17:33:43;3.07;;;2.10;;
13075;SDS011;6604;52.484;13.330;2023-03-13T17:36:13;2.93;;;1.97;;
13075;SDS011;6604;52.484;13.330;2023-03-13T17:38:40;6.47;;;3.60;;
13075;SDS011;6604;52.484;13.330;2023-03-13T17:41:08;2.30;;;2.03;;
13075;SDS011;6604;52.484;13.330;2023-03-13T17:43:35;2.40;;;2.07;;
13075;SDS011;6604;52.484;13.330;2023-03-13T17:46:03;1.97;;;1.77;;
13075;SDS011;6604;52.484;13.330;2023-03-13T17:48:30;3.00;;;2.10;;
13075;SDS011;6604;52.484;13.330;2023-03-13T17:50:57;2.10;;;1.90;;
13075;SDS011;6604;52.484;13.330;2023-03-13T17:53:24;2.10;;;1.90;;
13075;SDS011;6604;52.484;13.330;2023-03-13T17:55:50;3.10;;;2.17;;
13075;SDS011;6604;52.484;13.330;2023-03-13T17:58:17;5.77;;;3.83;;
13075;SDS011;6604;52.484;13.330;2023-03-13T18:00:43;3.57;;;2.47;;
13075;SDS011;6604;52.484;13.330;2023-03-13T18:03:13;5.73;;;2.53;;
13075;SDS011;6604;52.484;13.330;2023-03-13T18:05:40;2.60;;;1.83;;
13075;SDS011;6604;52.484;13.330;2023-03-13T18:08:07;2.90;;;1.90;;
13075;SDS011;6604;52.484;13.330;2023-03-13T18:10:34;3.00;;;1.70;;
13075;SDS011;6604;52.484;13.330;2023-03-13T18:13:01;1.93;;;1.80;;
13075;SDS011;6604;52.484;13.330;2023-03-13T18:15:27;3.43;;;2.10;;
13075;SDS011;6604;52.484;13.330;2023-03-13T18:17:54;3.03;;;2.10;;
13075;SDS011;6604;52.484;13.330;2023-03-13T18:20:23;2.53;;;1.90;;
13075;SDS011;6604;52.484;13.330;2023-03-13T18:22:50;2.20;;;1.80;;
13075;SDS011;6604;52.484;13.330;2023-03-13T18:25:18;2.00;;;1.73;;
13075;SDS011;6604;52.484;13.330;2023-03-13T18:27:44;4.27;;;1.90;;
13075;SDS011;6604;52.484;13.330;2023-03-13T18:30:15;3.30;;;2.00;;
13075;SDS011;6604;52.484;13.330;2023-03-13T18:32:42;1.70;;;1.60;;
13075;SDS011;6604;52.484;13.330;2023-03-13T18:35:09;2.00;;;1.90;;
13075;SDS011;6604;52.484;13.330;2023-03-13T18:37:39;2.73;;;2.33;;
13075;SDS011;6604;52.484;13.330;2023-03-13T18:40:10;2.70;;;2.17;;
13075;SDS011;6604;52.484;13.330;2023-03-13T18:42:42;3.70;;;1.93;;
13075;SDS011;6604;52.484;13.330;2023-03-13T18:45:09;4.20;;;2.07;;
13075;SDS011;6604;52.484;13.330;2023-03-13T18:47:38;3.10;;;1.80;;
13075;SDS011;6604;52.484;13.330;2023-03-13T18:50:08;3.67;;;1.90;;
13075;SDS011;6604;52.484;13.330;2023-03-13T18:52:42;2.27;;;1.80;;
13075;SDS011;6604;52.484;13.330;2023-03-13T18:55:09;2.87;;;1.70;;
13075;SDS011;6604;52.484;13.330;2023-03-13T18:57:35;2.90;;;2.37;;
13075;SDS011;6604;52.484;13.330;2023-03-13T19:00:02;3.30;;;2.70;;
13075;SDS011;6604;52.484;13.330;2023-03-13T19:02:36;2.60;;;2.40;;
13075;SDS011;6604;52.484;13.330;2023-03-13T19:05:03;2.60;;;1.90;;
13075;SDS011;6604;52.484;13.330;2023-03-13T19:07:30;4.00;;;2.30;;
13075;SDS011;6604;52.484;13.330;2023-03-13T19:09:58;3.77;;;1.90;;
13075;SDS011;6604;52.484;13.330;2023-03-13T19:12:25;2.97;;;2.30;;
13075;SDS011;6604;52.484;13.330;2023-03-13T19:14:53;2.87;;;2.20;;
13075;SDS011;6604;52.484;13.330;2023-03-13T19:17:21;2.60;;;2.30;;
13075;SDS011;6604;52.484;13.330;2023-03-13T19:19:48;3.50;;;1.90;;
13075;SDS011;6604;52.484;13.330;2023-03-13T19:22:15;2.07;;;1.87;;
13075;SDS011;6604;52.484;13.330;2023-03-13T19:24:42;2.63;;;2.13;;
13075;SDS011;6604;52.484;13.330;2023-03-13T19:27:10;2.37;;;2.17;;
13075;SDS011;6604;52.484;13.330;2023-03-13T19:29:38;4.07;;;2.20;;
13075;SDS011;6604;52.484;13.330;2023-03-13T19:32:05;2.10;;;1.93;;
13075;SDS011;6604;52.484;13.330;2023-03-13T19:34:32;3.17;;;1.97;;
13075;SDS011;6604;52.484;13.330;2023-03-13T19:36:58;3.00;;;2.40;;
13075;SDS011;6604;52.484;13.330;2023-03-13T19:39:25;4.50;;;3.50;;
13075;SDS011;6604;52.484;13.330;2023-03-13T19:41:52;2.77;;;2.37;;
13075;SDS011;6604;52.484;13.330;2023-03-13T19:44:20;2.80;;;2.20;;
13075;SDS011;6604;52.484;13.330;2023-03-13T19:46:48;3.57;;;2.17;;
13075;SDS011;6604;52.484;13.330;2023-03-13T19:49:15;3.93;;;2.10;;
13075;SDS011;6604;52.484;13.330;2023-03-13T19:51:42;2.83;;;2.03;;
13075;SDS011;6604;52.484;13.330;2023-03-13T19:54:10;2.53;;;1.90;;
13075;SDS011;6604;52.484;13.330;2023-03-13T19:56:41;2.27;;;1.80;;
13075;SDS011;6604;52.484;13.330;2023-03-13T19:59:09;2.37;;;2.10;;
13075;SDS011;6604;52.484;13.330;2023-03-13T20:01:42;2.60;;;2.10;;
13075;SDS011;6604;52.484;13.330;2023-03-13T20:04:09;2.50;;;2.20;;
13075;SDS011;6604;52.484;13.330;2023-03-13T20:06:35;2.50;;;2.30;;
13075;SDS011;6604;52.484;13.330;2023-03-13T20:09:03;5.77;;;3.10;;
13075;SDS011;6604;52.484;13.330;2023-03-13T20:11:29;3.00;;;2.27;;
13075;SDS011;6604;52.484;13.330;2023-03-13T20:13:56;4.30;;;2.83;;
13075;SDS011;6604;52.484;13.330;2023-03-13T20:16:23;5.13;;;2.77;;
13075;SDS011;6604;52.484;13.330;2023-03-13T20:18:53;3.57;;;2.80;;
13075;SDS011;6604;52.484;13.330;2023-03-13T20:21:20;5.67;;;3.53;;
13075;SDS011;6604;52.484;13.330;2023-03-13T20:23:47;4.90;;;3.03;;
13075;SDS011;6604;52.484;13.330;2023-03-13T20:26:14;4.27;;;2.73;;
13075;SDS011;6604;52.484;13.330;2023-03-13T20:28:42;3.77;;;2.70;;
13075;SDS011;6604;52.484;13.330;2023-03-13T20:31:10;3.30;;;2.83;;
13075;SDS011;6604;52.484;13.330;2023-03-13T20:33:38;7.53;;;4.30;;
13075;SDS011;6604;52.484;13.330;2023-03-13T20:36:07;3.37;;;3.00;;
13075;SDS011;6604;52.484;13.330;2023-03-13T20:38:34;4.23;;;2.83;;
13075;SDS011;6604;52.484;13.330;2023-03-13T20:41:01;4.67;;;2.50;;
13075;SDS011;6604;52.484;13.330;2023-03-13T20:43:28;3.40;;;2.40;;
13075;SDS011;6604;52.484;13.330;2023-03-13T20:45:57;4.57;;;2.70;;
13075;SDS011;6604;52.484;13.330;2023-03-13T20:48:24;4.77;;;3.10;;
13075;SDS011;6604;52.484;13.330;2023-03-13T20:50:51;3.67;;;2.73;;
13075;SDS011;6604;52.484;13.330;2023-03-13T20:53:19;3.73;;;2.83;;
13075;SDS011;6604;52.484;13.330;2023-03-13T20:55:46;3.17;;;2.70;;
13075;SDS011;6604;52.484;13.330;2023-03-13T20:58:13;5.57;;;3.80;;
13075;SDS011;6604;52.484;13.330;2023-03-13T21:00:40;4.30;;;3.37;;
13075;SDS011;6604;52.484;13.330;2023-03-13T21:03:07;4.73;;;2.67;;
13075;SDS011;6604;52.484;13.330;2023-03-13T21:05:36;3.90;;;2.80;;
13075;SDS011;6604;52.484;13.330;2023-03-13T21:08:07;4.40;;;2.80;;
13075;SDS011;6604;52.484;13.330;2023-03-13T21:10:35;3.40;;;2.47;;
13075;SDS011;6604;52.484;13.330;2023-03-13T21:13:02;3.17;;;2.30;;
13075;SDS011;6604;52.484;13.330;2023-03-13T21:15:28;3.37;;;2.50;;
13075;SDS011;6604;52.484;13.330;2023-03-13T21:17:55;2.97;;;2.33;;
13075;SDS011;6604;52.484;13.330;2023-03-13T21:20:22;5.43;;;3.23;;
13075;SDS011;6604;52.484;13.330;2023-03-13T21:22:49;3.53;;;2.80;;
13075;SDS011;6604;52.484;13.330;2023-03-13T21:25:16;3.03;;;2.10;;
13075;SDS011;6604;52.484;13.330;2023-03-13T21:27:44;3.97;;;2.20;;
13075;SDS011;6604;52.484;13.330;2023-03-13T21:30:16;4.00;;;2.27;;
13075;SDS011;6604;52.484;13.330;2023-03-13T21:32:43;3.83;;;1.93;;
13075;SDS011;6604;52.484;13.330;2023-03-13T21:35:12;3.07;;;2.10;;
13075;SDS011;6604;52.484;13.330;2023-03-13T21:37:39;3.30;;;1.90;;
13075;SDS011;6604;52.484;13.330;2023-03-13T21:40:06;1.73;;;1.60;;
13075;SDS011;6604;52.484;13.330;2023-03-13T21:42:33;3.63;;;2.03;;
13075;SDS011;6604;52.484;13.330;2023-03-13T21:45:03;2.70;;;1.53;;
13075;SDS011;6604;52.484;13.330;2023-03-13T21:47:29;1.60;;;1.50;;
13075;SDS011;6604;52.484;13.330;2023-03-13T21:50:00;2.83;;;1.70;;
13075;SDS011;6604;52.484;13.330;2023-03-13T21:52:28;2.50;;;1.83;;
13075;SDS011;6604;52.484;13.330;2023-03-13T21:54:56;2.13;;;1.50;;
13075;SDS011;6604;52.484;13.330;2023-03-13T21:57:23;1.57;;;1.43;;
13075;SDS011;6604;52.484;13.330;2023-03-13T21:59:49;1.43;;;1.33;;
13075;SDS011;6604;52.484;13.330;2023-03-13T22:02:17;1.67;;;1.43;;
13075;SDS011;6604;52.484;13.330;2023-03-13T22:04:44;1.47;;;1.37;;
13075;SDS011;6604;52.484;13.330;2023-03-13T22:07:10;3.90;;;1.40;;
13075;SDS011;6604;52.484;13.330;2023-03-13T22:09:37;1.57;;;1.33;;
13075;SDS011;6604;52.484;13.330;2023-03-13T22:12:04;1.63;;;1.50;;
13075;SDS011;6604;52.484;13.330;2023-03-13T22:14:30;2.07;;;1.50;;
13075;SDS011;6604;52.484;13.330;2023-03-13T22:16:57;2.43;;;1.50;;
13075;SDS011;6604;52.484;13.330;2023-03-13T22:19:25;2.33;;;1.40;;
13075;SDS011;6604;52.484;13.330;2023-03-13T22:21:51;2.00;;;1.17;;
13075;SDS011;6604;52.484;13.330;2023-03-13T22:24:18;1.53;;;1.43;;
13075;SDS011;6604;52.484;13.330;2023-03-13T22:26:44;1.63;;;1.37;;
13075;SDS011;6604;52.484;13.330;2023-03-13T22:29:11;1.43;;;1.23;;
